Radar is unstable, so pay attention to the date and time in the image

Latest  Newer  Older  Last 2 hours animation  Current image  Latest image  Summary per 24h (testing)  Summary per 7d (testing) 
Cloud coverage sat images  Infrared sat images 
Real-time lightning map

All time is UTC (add 2 hours in wintertime, 3 hours in DST for Latvia local time)

2020/11/30 07:20 EVRA 300720Z 18004KT 2700 SN SCT003 BKN042 M01/M01 Q1019 R18/590339 BECMG OVC003
2020/11/30 07:20 EVLA 300720Z AUTO 14002KT 9999 SCT035/// OVC057/// 00/M00 Q1020
2020/11/30 07:20 EVVA 300720Z AUTO 16002KT 8000 FEW024 OVC033 01/01 Q1019
2020/11/30 07:20 EYKA 300720Z 26005KT 9000 BKN007 OVC011 00/M02 Q1020 R08/290095
2020/11/30 07:20 EYPA 300720Z 14003KT 9999 OVC048 M01/M01 Q1020
2020/11/30 07:20 EYSA 300720Z 24005KT 5000 BR FEW004 BKN007 OVC011 M01/M02 Q1020 R14L/29//95 R14R/29//95 GRN
2020/11/30 07:20 EYVI 300720Z 30005KT 270V330 9999 OVC002 M01/M01 Q1019 R01/2///95 TEMPO 1500 BR
2020/11/30 06:50 EEKA 300650Z 00000KT 8000 -SN SCT017 BKN040 00/M00 Q1019
2020/11/30 06:50 EEKE 300650Z 00000KT 4100 SN BKN025 OVC039 M00/M01 Q1019
2020/11/30 06:50 EEPU 300650Z 04003KT 010V070 3600 -SN BR BKN008 M01/M01 Q1018
2020/11/30 07:20 EETN 300720Z 10002KT 4700 -SN BR FEW004 SCT039 M01/M01 Q1019 R08/490393 TEMPO 3000 -FZDZ BR
2020/11/30 06:50 EETU 300650Z 13005KT 2900 SN OVC005 00/M00 Q1018
   RIGA AIRPORT     EVRA               56 55N  023 58E   10   X     T          6 LV
   LIEPAJA INTL     EVLA        26406  56 31N  021 06E    4   X                8 LV
   VENTPILS         EVVA               57 21N  021 33E    6   X                8 LV
   KAUNAS           EYKA               54 54N  023 55E   77   X     T          6 LT
   PALANGA INTL     EYPA               55 55N  021 03E   10   X                6 LT
   SIAULIAI INTL    EYSA               55 54N  023 24E  135   X     T          6 LT
   VILNIUS INTL     EYVI        26730  54 38N  025 17E  197   X     T          6 LT
   KARDLA           EEKA        26116  58 59N  022 50E    4   X                8 EE
   KURESSAARE       EEKE               58 14N  022 31E    4   X                8 EE
   PARNU            EEPU               58 25N  024 28E   14   X                8 EE
   TALLINN          EETN        26038  59 24N  024 49E   40   X     T          8 EE
   TARTU            EETU               58 19N  026 41E   67   X                8 EE

rain/snow radar image from www.meteo.lv and METAR data from weather.noaa.gov